Time;durP1;ratioP1;P1;durP2;ratioP2;P2;SDS_P1;SDS_P2;PMS_P1;PMS_P2;Temp;Humidity;BMP_temperature;BMP_pressure;BME280_temperature;BME280_humidity;BME280_pressure;Samples;Min_cycle;Max_cycle;Signal;HPM_P1;HPM_P2
2023/01/12 00:01:24;;;;;;;;;;;8.10;99.90;;;;;;5045774;28;994;-73
2023/01/12 00:03:52;;;;;;;;;;;8.20;99.90;;;;;;5043203;28;1244;-74
2023/01/12 00:06:21;;;;;;;;;;;8.10;99.90;;;;;;5041898;28;1073;-75
2023/01/12 00:08:50;;;;;;;;;;;8.20;99.90;;;;;;5045078;28;1905;-73
2023/01/12 00:11:18;;;;;;;;;;;8.20;99.90;;;;;;5045039;28;1096;-72
2023/01/12 00:13:46;;;;;;;;;;;8.20;99.90;;;;;;5042730;28;1346;-73
2023/01/12 00:18:56;;;;;;;;;;;8.20;99.90;;;;;;5041901;28;1204;-73
2023/01/12 00:21:25;;;;;;;;;;;8.20;99.90;;;;;;5044818;28;1140;-73
2023/01/12 00:23:52;;;;;;;;;;;8.20;99.90;;;;;;5043201;28;1571;-73
2023/01/12 00:26:20;;;;;;;;;;;8.20;99.90;;;;;;5048243;28;1153;-73
2023/01/12 00:28:47;;;;;;;;;;;8.20;99.90;;;;;;5044383;28;1910;-74
2023/01/12 00:31:15;;;;;;;;;;;8.10;99.90;;;;;;5043791;28;1619;-74
2023/01/12 00:33:43;;;;;;;;;;;8.10;99.90;;;;;;5043149;28;1290;-74
2023/01/12 00:36:12;;;;;;;;;;;8.20;99.90;;;;;;5045139;28;1111;-73
2023/01/12 00:38:41;;;;;;;;;;;8.20;99.90;;;;;;5043492;28;1017;-75
2023/01/12 00:41:11;;;;;;;;;;;8.10;99.90;;;;;;5043843;28;1140;-74
2023/01/12 00:46:29;;;;;;;;;;;8.10;99.90;;;;;;5044002;28;1113;-72
2023/01/12 00:48:56;;;;;;;;;;;8.20;99.90;;;;;;5043648;28;1971;-72
2023/01/12 00:51:24;;;;;;;;;;;8.20;99.90;;;;;;5042350;28;1961;-73
2023/01/12 00:53:53;;;;;;;;;;;8.20;99.90;;;;;;5045112;28;1244;-73
2023/01/12 00:56:20;;;;;;;;;;;8.20;99.90;;;;;;5040990;28;1064;-73
2023/01/12 00:58:48;;;;;;;;;;;8.30;99.90;;;;;;5045420;28;1061;-73
2023/01/12 01:01:16;;;;;;;;;;;8.30;99.90;;;;;;5047086;28;1001;-73
2023/01/12 01:03:44;;;;;;;;;;;8.30;99.90;;;;;;5048768;28;1332;-74
2023/01/12 01:06:11;;;;;;;;;;;8.30;99.90;;;;;;5043640;28;1021;-75
2023/01/12 01:08:39;;;;;;;;;;;8.30;99.90;;;;;;5044984;28;1894;-72
2023/01/12 01:11:09;;;;;;;;;;;8.30;99.90;;;;;;5042918;28;1048;-73
2023/01/12 01:13:39;;;;;;;;;;;8.30;99.90;;;;;;5042711;28;1169;-73
2023/01/12 01:16:07;;;;;;;;;;;8.30;99.90;;;;;;5043284;28;1109;-73
2023/01/12 01:18:35;;;;;;;;;;;8.30;99.90;;;;;;5044676;28;1060;-73
2023/01/12 01:21:03;;;;;;;;;;;8.30;99.90;;;;;;5047006;28;1012;-72
2023/01/12 01:23:33;;;;;;;;;;;8.30;99.90;;;;;;5044167;28;1041;-73
2023/01/12 01:26:01;;;;;;;;;;;8.30;99.90;;;;;;5040029;28;1332;-73
2023/01/12 01:28:31;;;;;;;;;;;8.30;99.90;;;;;;5040009;28;2119;-72
2023/01/12 01:31:02;;;;;;;;;;;8.30;99.90;;;;;;5040360;28;777;-74
2023/01/12 01:33:30;;;;;;;;;;;8.30;99.90;;;;;;5044508;28;987;-73
2023/01/12 01:35:57;;;;;;;;;;;8.30;99.90;;;;;;5042818;28;1179;-73
2023/01/12 01:38:25;;;;;;;;;;;8.30;99.90;;;;;;5039636;28;1504;-73
2023/01/12 01:40:53;;;;;;;;;;;8.30;99.90;;;;;;5052864;28;989;-72
2023/01/12 01:43:22;;;;;;;;;;;8.40;99.90;;;;;;5059575;28;1650;-74
2023/01/12 01:45:55;;;;;;;;;;;8.30;99.90;;;;;;5058935;28;1329;-72
2023/01/12 01:48:23;;;;;;;;;;;8.40;99.90;;;;;;5056240;28;1906;-73
2023/01/12 01:50:54;;;;;;;;;;;8.40;99.90;;;;;;5058761;28;1168;-73
2023/01/12 01:53:23;;;;;;;;;;;8.50;99.90;;;;;;5060612;28;1421;-74
2023/01/12 01:55:53;;;;;;;;;;;8.50;99.90;;;;;;5062817;28;1428;-72
2023/01/12 01:58:22;;;;;;;;;;;8.50;99.90;;;;;;5056344;28;977;-72
2023/01/12 02:00:52;;;;;;;;;;;8.60;99.90;;;;;;5051897;28;972;-73
2023/01/12 02:03:19;;;;;;;;;;;8.60;99.90;;;;;;5041408;28;1248;-74
2023/01/12 02:05:48;;;;;;;;;;;8.60;99.90;;;;;;5044459;28;1374;-73
2023/01/12 02:08:17;;;;;;;;;;;8.60;99.90;;;;;;5045034;28;1938;-72
2023/01/12 02:10:45;;;;;;;;;;;8.70;99.90;;;;;;5045611;28;1077;-73
2023/01/12 02:16:22;;;;;;;;;;;8.70;99.90;;;;;;5044621;28;1371;-74
2023/01/12 02:18:53;;;;;;;;;;;8.70;99.90;;;;;;5043703;28;981;-74
2023/01/12 02:21:33;;;;;;;;;;;8.70;99.90;;;;;;5044245;28;1229;-75
2023/01/12 02:24:31;;;;;;;;;;;8.60;99.90;;;;;;5042314;28;1291;-75
2023/01/12 02:27:17;;;;;;;;;;;8.50;99.90;;;;;;4996454;28;1687;-76
2023/01/12 02:29:58;;;;;;;;;;;8.60;99.90;;;;;;5038348;28;1991;-76
2023/01/12 02:32:29;;;;;;;;;;;8.60;99.90;;;;;;5043913;28;1089;-74
2023/01/12 02:35:04;;;;;;;;;;;8.80;99.90;;;;;;5041913;28;1304;-75
2023/01/12 02:37:35;;;;;;;;;;;8.70;99.90;;;;;;5043117;28;1048;-76
2023/01/12 02:40:05;;;;;;;;;;;8.80;99.90;;;;;;5046890;28;1001;-76
2023/01/12 02:42:46;;;;;;;;;;;8.70;99.90;;;;;;5046062;28;998;-73
2023/01/12 02:45:19;;;;;;;;;;;8.90;99.90;;;;;;5046425;28;1551;-74
2023/01/12 02:47:50;;;;;;;;;;;8.80;99.90;;;;;;5045716;28;1074;-74
2023/01/12 02:50:20;;;;;;;;;;;8.80;99.90;;;;;;5044473;28;1669;-74
2023/01/12 02:52:54;;;;;;;;;;;8.90;99.90;;;;;;5048992;28;1298;-75
2023/01/12 02:55:23;;;;;;;;;;;8.90;99.90;;;;;;5048105;28;1355;-75
2023/01/12 02:57:52;;;;;;;;;;;8.80;99.90;;;;;;5045292;28;1005;-76
2023/01/12 03:00:20;;;;;;;;;;;8.70;99.90;;;;;;5047661;28;851;-74
2023/01/12 03:02:49;;;;;;;;;;;8.80;99.90;;;;;;5047842;28;1088;-75
2023/01/12 03:05:17;;;;;;;;;;;8.80;99.90;;;;;;5044945;28;1283;-73
2023/01/12 03:07:46;;;;;;;;;;;8.80;99.90;;;;;;5045671;28;1415;-73
2023/01/12 03:10:17;;;;;;;;;;;8.80;99.90;;;;;;5044102;28;1914;-73
2023/01/12 03:12:45;;;;;;;;;;;8.80;99.90;;;;;;5044875;28;1014;-73
2023/01/12 03:15:15;;;;;;;;;;;8.80;99.90;;;;;;5047217;28;1292;-73
2023/01/12 03:17:44;;;;;;;;;;;8.70;99.90;;;;;;5047655;28;1028;-74
2023/01/12 03:20:15;;;;;;;;;;;8.70;99.90;;;;;;5045454;28;1069;-74
2023/01/12 03:22:45;;;;;;;;;;;8.60;99.90;;;;;;5046384;28;1010;-74
2023/01/12 03:25:15;;;;;;;;;;;8.50;99.90;;;;;;5035042;28;2150;-74
2023/01/12 03:27:44;;;;;;;;;;;8.40;99.90;;;;;;5038581;28;2079;-73
2023/01/12 03:30:14;;;;;;;;;;;8.40;99.90;;;;;;5042995;28;2009;-74
2023/01/12 03:32:42;;;;;;;;;;;8.40;99.90;;;;;;5047437;28;1084;-75
2023/01/12 03:35:10;;;;;;;;;;;8.50;99.90;;;;;;5043751;28;1465;-74
2023/01/12 03:37:43;;;;;;;;;;;8.50;99.90;;;;;;5045594;28;1029;-75
2023/01/12 03:40:12;;;;;;;;;;;8.40;99.90;;;;;;5045508;28;1071;-74
2023/01/12 03:42:45;;;;;;;;;;;8.50;99.90;;;;;;5043139;28;1069;-74
2023/01/12 03:45:19;;;;;;;;;;;8.60;99.90;;;;;;5045394;28;1254;-73
2023/01/12 03:47:49;;;;;;;;;;;8.60;99.90;;;;;;5042410;28;997;-75
2023/01/12 03:50:19;;;;;;;;;;;8.60;99.90;;;;;;5043673;28;1910;-75
2023/01/12 03:52:48;;;;;;;;;;;8.70;99.90;;;;;;5048359;28;1147;-73
2023/01/12 03:55:17;;;;;;;;;;;8.70;99.90;;;;;;5044922;28;1275;-75
2023/01/12 03:57:45;;;;;;;;;;;8.70;99.90;;;;;;5047425;28;1102;-73
2023/01/12 04:00:14;;;;;;;;;;;8.60;99.90;;;;;;5044425;28;2099;-74
2023/01/12 04:02:42;;;;;;;;;;;8.60;99.90;;;;;;5045038;28;1167;-73
2023/01/12 04:05:11;;;;;;;;;;;8.50;99.90;;;;;;5041481;28;1711;-74
2023/01/12 04:07:39;;;;;;;;;;;8.60;99.90;;;;;;5040652;28;1089;-74
2023/01/12 04:10:09;;;;;;;;;;;8.50;99.90;;;;;;5044980;28;1906;-74
2023/01/12 04:12:36;;;;;;;;;;;8.60;99.90;;;;;;5044915;28;1224;-74
2023/01/12 04:15:05;;;;;;;;;;;8.60;99.90;;;;;;5043800;28;1819;-73
2023/01/12 04:17:32;;;;;;;;;;;8.60;99.90;;;;;;5041508;28;1070;-74
2023/01/12 04:20:00;;;;;;;;;;;8.60;99.90;;;;;;5045886;28;1050;-73
2023/01/12 04:22:42;;;;;;;;;;;8.60;99.90;;;;;;5046074;28;1511;-74
2023/01/12 04:25:11;;;;;;;;;;;8.70;99.90;;;;;;5044208;28;1374;-73
2023/01/12 04:27:45;;;;;;;;;;;8.60;99.90;;;;;;5043378;28;1357;-73
2023/01/12 04:30:13;;;;;;;;;;;8.70;99.90;;;;;;5043729;28;1914;-74
2023/01/12 04:32:41;;;;;;;;;;;8.70;99.90;;;;;;5043297;28;1105;-73
2023/01/12 04:35:10;;;;;;;;;;;8.60;99.90;;;;;;5042697;28;1367;-74
2023/01/12 04:37:38;;;;;;;;;;;8.60;99.90;;;;;;5045068;28;1056;-74
2023/01/12 04:40:06;;;;;;;;;;;8.70;99.90;;;;;;5043068;28;997;-74
2023/01/12 04:45:21;;;;;;;;;;;8.70;99.90;;;;;;5047561;28;1382;-76
2023/01/12 04:47:49;;;;;;;;;;;8.60;99.90;;;;;;5045038;28;1051;-75
2023/01/12 04:50:16;;;;;;;;;;;8.60;99.90;;;;;;5044006;28;1909;-74
2023/01/12 04:52:44;;;;;;;;;;;8.60;99.90;;;;;;5040908;28;1204;-75
2023/01/12 04:55:12;;;;;;;;;;;8.60;99.90;;;;;;5043785;28;1282;-75
2023/01/12 04:57:41;;;;;;;;;;;8.70;99.90;;;;;;5043269;28;1045;-74
2023/01/12 05:00:09;;;;;;;;;;;8.60;99.90;;;;;;5040067;28;1019;-76
2023/01/12 05:02:37;;;;;;;;;;;8.70;99.90;;;;;;5041124;28;1814;-75
2023/01/12 05:05:05;;;;;;;;;;;8.80;99.90;;;;;;5043438;28;2162;-74
2023/01/12 05:07:33;;;;;;;;;;;8.80;99.90;;;;;;5045122;28;1052;-75
2023/01/12 05:12:49;;;;;;;;;;;8.80;99.90;;;;;;5038706;28;1334;-74
2023/01/12 05:15:16;;;;;;;;;;;8.80;99.90;;;;;;5044238;28;1394;-76
2023/01/12 05:17:44;;;;;;;;;;;8.70;99.90;;;;;;5044997;28;1006;-75
2023/01/12 05:20:12;;;;;;;;;;;8.80;99.90;;;;;;5041785;28;1069;-75
2023/01/12 05:22:39;;;;;;;;;;;8.80;99.90;;;;;;5044044;28;1816;-75
2023/01/12 05:25:07;;;;;;;;;;;8.80;99.90;;;;;;5041995;28;1312;-76
2023/01/12 05:27:35;;;;;;;;;;;8.80;99.90;;;;;;5044552;28;1115;-74
2023/01/12 05:30:04;;;;;;;;;;;8.80;99.90;;;;;;5042315;28;1902;-73
2023/01/12 05:32:35;;;;;;;;;;;9.10;99.90;;;;;;5042070;28;1128;-75
2023/01/12 05:35:05;;;;;;;;;;;8.90;99.90;;;;;;5047523;28;1315;-73
2023/01/12 05:37:34;;;;;;;;;;;8.70;99.90;;;;;;5043253;28;1104;-73
2023/01/12 05:40:01;;;;;;;;;;;8.70;99.90;;;;;;5044625;28;1087;-74
2023/01/12 05:45:26;;;;;;;;;;;8.80;99.90;;;;;;4997252;28;1284;-75
2023/01/12 05:47:59;;;;;;;;;;;8.70;99.90;;;;;;4999418;28;1137;-74
2023/01/12 05:50:31;;;;;;;;;;;8.80;99.90;;;;;;5004526;28;1981;-75
2023/01/12 05:52:59;;;;;;;;;;;8.80;99.90;;;;;;4996370;28;1121;-72
2023/01/12 05:55:26;;;;;;;;;;;8.70;99.90;;;;;;5026393;28;1352;-73
2023/01/12 05:57:54;;;;;;;;;;;8.70;99.90;;;;;;5042929;28;1104;-73
2023/01/12 06:00:22;;;;;;;;;;;8.60;99.90;;;;;;5042281;28;1143;-75
2023/01/12 06:02:51;;;;;;;;;;;8.70;99.90;;;;;;5040812;28;1540;-74
2023/01/12 06:05:18;;;;;;;;;;;8.60;99.90;;;;;;5043485;28;1626;-74
2023/01/12 06:07:46;;;;;;;;;;;8.50;99.90;;;;;;5042166;28;1234;-75
2023/01/12 06:10:14;;;;;;;;;;;8.50;99.90;;;;;;5042952;28;1906;-74
2023/01/12 06:15:26;;;;;;;;;;;8.50;99.90;;;;;;5039935;28;1534;-74
2023/01/12 06:17:56;;;;;;;;;;;8.50;99.90;;;;;;5039513;28;1283;-75
2023/01/12 06:20:23;;;;;;;;;;;8.50;99.90;;;;;;5040236;28;1045;-77
2023/01/12 06:22:51;;;;;;;;;;;8.50;99.90;;;;;;5043216;28;1522;-76
2023/01/12 06:25:18;;;;;;;;;;;8.50;99.90;;;;;;5044464;28;1292;-76
2023/01/12 06:27:46;;;;;;;;;;;8.50;99.90;;;;;;5041466;28;2151;-75
2023/01/12 06:30:14;;;;;;;;;;;8.50;99.90;;;;;;5039803;28;2158;-75
2023/01/12 06:32:42;;;;;;;;;;;8.60;99.90;;;;;;5040446;28;1957;-74
2023/01/12 06:35:11;;;;;;;;;;;9.40;99.90;;;;;;5034148;28;1913;-78
2023/01/12 06:37:46;;;;;;;;;;;9.20;99.90;;;;;;5046630;28;2009;-77
2023/01/12 06:40:14;;;;;;;;;;;8.80;99.90;;;;;;5036752;28;2131;-77
2023/01/12 06:42:42;;;;;;;;;;;8.70;99.90;;;;;;5041035;28;2332;-77
2023/01/12 06:45:11;;;;;;;;;;;8.70;99.90;;;;;;5039987;28;1512;-76
2023/01/12 06:47:45;;;;;;;;;;;8.70;99.90;;;;;;5042726;28;1076;-76
2023/01/12 06:50:14;;;;;;;;;;;8.70;99.90;;;;;;5044970;28;1922;-77
2023/01/12 06:52:41;;;;;;;;;;;8.70;99.90;;;;;;5045036;28;1303;-74
2023/01/12 06:55:09;;;;;;;;;;;8.60;99.90;;;;;;5041931;28;1317;-74
2023/01/12 06:57:37;;;;;;;;;;;8.60;99.90;;;;;;5042024;28;1036;-75
2023/01/12 07:00:06;;;;;;;;;;;8.70;99.90;;;;;;5043928;28;1026;-74
2023/01/12 07:02:34;;;;;;;;;;;8.70;99.90;;;;;;5041862;28;1116;-75
2023/01/12 07:05:01;;;;;;;;;;;8.70;99.90;;;;;;5039543;28;1599;-75
2023/01/12 07:07:30;;;;;;;;;;;8.60;99.90;;;;;;5042061;28;1121;-73
2023/01/12 07:09:58;;;;;;;;;;;8.60;99.90;;;;;;5043436;28;982;-73
2023/01/12 07:12:25;;;;;;;;;;;8.60;99.90;;;;;;5041252;28;1972;-73
2023/01/12 07:14:55;;;;;;;;;;;8.70;99.90;;;;;;5042579;28;1295;-73
2023/01/12 07:17:22;;;;;;;;;;;8.60;99.90;;;;;;5043357;28;1048;-74
2023/01/12 07:19:50;;;;;;;;;;;8.60;99.90;;;;;;5038189;28;2198;-76
2023/01/12 07:22:18;;;;;;;;;;;8.70;99.90;;;;;;5042523;28;2084;-76
2023/01/12 07:24:47;;;;;;;;;;;8.70;99.90;;;;;;5041010;28;1258;-74
2023/01/12 07:27:14;;;;;;;;;;;8.70;99.90;;;;;;5046380;28;950;-74
2023/01/12 07:29:42;;;;;;;;;;;8.70;99.90;;;;;;5046344;28;1413;-75
2023/01/12 07:32:10;;;;;;;;;;;8.70;99.90;;;;;;5046243;28;1988;-74
2023/01/12 07:34:37;;;;;;;;;;;8.70;99.90;;;;;;5043907;28;1331;-74
2023/01/12 07:37:06;;;;;;;;;;;8.70;99.90;;;;;;5045792;28;1108;-73
2023/01/12 07:39:33;;;;;;;;;;;8.70;99.90;;;;;;5045445;28;1912;-74
2023/01/12 07:44:47;;;;;;;;;;;8.90;99.90;;;;;;5043446;28;1319;-76
2023/01/12 07:47:15;;;;;;;;;;;8.70;99.90;;;;;;5043091;28;1194;-74
2023/01/12 07:49:43;;;;;;;;;;;8.70;99.90;;;;;;5043370;28;1022;-75
2023/01/12 07:52:11;;;;;;;;;;;8.60;99.90;;;;;;5046148;28;1938;-77
2023/01/12 07:54:39;;;;;;;;;;;8.60;99.90;;;;;;5045026;28;1523;-75
2023/01/12 07:57:08;;;;;;;;;;;8.80;99.90;;;;;;5041915;28;2072;-76
2023/01/12 07:59:36;;;;;;;;;;;8.70;99.90;;;;;;5045922;28;1343;-76
2023/01/12 08:02:04;;;;;;;;;;;8.70;99.90;;;;;;5045627;28;1370;-76
2023/01/12 08:04:32;;;;;;;;;;;8.60;99.90;;;;;;5046186;28;1483;-76
2023/01/12 08:07:00;;;;;;;;;;;8.70;99.90;;;;;;5045903;28;1071;-78
2023/01/12 08:09:28;;;;;;;;;;;8.70;99.90;;;;;;5054927;28;1596;-78
2023/01/12 08:11:55;;;;;;;;;;;8.80;99.90;;;;;;5050314;28;1989;-78
2023/01/12 08:14:27;;;;;;;;;;;8.90;99.90;;;;;;5054046;28;1704;-78
2023/01/12 08:17:00;;;;;;;;;;;8.90;99.90;;;;;;5052657;28;1147;-77
2023/01/12 08:19:30;;;;;;;;;;;8.80;99.90;;;;;;5053330;28;1307;-79
2023/01/12 08:22:01;;;;;;;;;;;8.80;99.90;;;;;;5055551;28;1512;-78
2023/01/12 08:24:31;;;;;;;;;;;8.90;99.90;;;;;;5051872;28;1516;-77
2023/01/12 08:26:59;;;;;;;;;;;8.90;99.90;;;;;;5055019;28;1108;-78
2023/01/12 08:29:33;;;;;;;;;;;8.80;99.90;;;;;;5054633;28;1147;-78
2023/01/12 08:32:02;;;;;;;;;;;9.00;99.90;;;;;;5049871;28;1981;-79
2023/01/12 08:34:31;;;;;;;;;;;8.90;99.90;;;;;;5053148;28;1448;-79
2023/01/12 08:37:00;;;;;;;;;;;9.00;99.90;;;;;;5054060;28;1079;-78
2023/01/12 08:39:29;;;;;;;;;;;8.90;99.90;;;;;;5048103;28;2154;-77
2023/01/12 08:41:56;;;;;;;;;;;9.00;99.90;;;;;;5047965;28;1576;-78
2023/01/12 08:44:28;;;;;;;;;;;9.00;99.90;;;;;;5045878;28;1473;-78
2023/01/12 08:46:57;;;;;;;;;;;8.90;99.90;;;;;;5031297;28;2167;-77
2023/01/12 08:49:26;;;;;;;;;;;8.70;99.90;;;;;;5039913;28;2162;-77
2023/01/12 08:51:55;;;;;;;;;;;8.70;99.90;;;;;;5045174;28;2103;-77
2023/01/12 08:54:23;;;;;;;;;;;8.80;99.90;;;;;;5043025;28;2146;-78
2023/01/12 08:56:52;;;;;;;;;;;8.70;99.90;;;;;;5049824;28;1074;-78
2023/01/12 08:59:20;;;;;;;;;;;8.90;99.90;;;;;;5047314;28;1516;-78
2023/01/12 09:01:47;;;;;;;;;;;8.90;99.90;;;;;;5042943;28;2182;-77
2023/01/12 09:04:17;;;;;;;;;;;8.80;99.90;;;;;;5048375;28;1368;-77
2023/01/12 09:06:45;;;;;;;;;;;9.10;99.90;;;;;;5047095;28;2219;-76
2023/01/12 09:09:15;;;;;;;;;;;9.00;99.90;;;;;;5048857;28;1041;-77
2023/01/12 09:11:43;;;;;;;;;;;8.80;99.90;;;;;;5044647;28;1906;-77
2023/01/12 09:14:11;;;;;;;;;;;8.90;99.90;;;;;;5047068;28;1300;-76
2023/01/12 09:16:39;;;;;;;;;;;8.90;99.90;;;;;;5044915;28;1568;-76
2023/01/12 09:19:08;;;;;;;;;;;8.90;99.90;;;;;;5046545;28;1079;-78
2023/01/12 09:21:38;;;;;;;;;;;9.00;99.90;;;;;;5045307;28;1148;-77
2023/01/12 09:24:06;;;;;;;;;;;8.90;99.90;;;;;;5046721;28;2103;-78
2023/01/12 09:26:36;;;;;;;;;;;9.10;99.90;;;;;;5046684;28;1250;-78
2023/01/12 09:29:04;;;;;;;;;;;8.90;99.90;;;;;;5045476;28;1953;-77
2023/01/12 09:31:32;;;;;;;;;;;9.00;99.90;;;;;;5044279;28;1886;-76
2023/01/12 09:34:00;;;;;;;;;;;8.90;99.90;;;;;;5044942;28;1344;-77
2023/01/12 09:36:28;;;;;;;;;;;8.80;99.90;;;;;;5046346;28;1116;-77
2023/01/12 09:38:58;;;;;;;;;;;8.90;99.90;;;;;;5047541;28;1104;-77
2023/01/12 09:47:02;;;;;;;;;;;8.80;99.90;;;;;;5042871;28;1863;-75
2023/01/12 09:49:32;;;;;;;;;;;8.90;99.90;;;;;;5044855;28;1100;-75
2023/01/12 09:52:08;;;;;;;;;;;8.90;99.90;;;;;;5043286;28;1910;-75
2023/01/12 09:54:37;;;;;;;;;;;8.90;99.90;;;;;;5035327;28;2091;-75
2023/01/12 09:57:10;;;;;;;;;;;9.00;99.90;;;;;;5034491;28;2611;-74
2023/01/12 09:59:57;;;;;;;;;;;9.00;99.90;;;;;;5038289;28;2078;-75
2023/01/12 10:02:25;;;;;;;;;;;9.10;99.90;;;;;;5042245;28;1973;-75
2023/01/12 10:04:54;;;;;;;;;;;9.20;99.90;;;;;;5038450;28;2103;-74
2023/01/12 10:07:21;;;;;;;;;;;9.20;99.90;;;;;;5043964;28;977;-74
2023/01/12 10:09:50;;;;;;;;;;;9.30;99.90;;;;;;5044997;28;1639;-75
2023/01/12 10:12:22;;;;;;;;;;;9.20;99.90;;;;;;5041088;28;1910;-76
2023/01/12 10:14:57;;;;;;;;;;;9.30;99.90;;;;;;5045590;28;2201;-75
2023/01/12 10:17:29;;;;;;;;;;;9.30;99.90;;;;;;5044508;28;1021;-75
2023/01/12 10:20:15;;;;;;;;;;;9.30;99.90;;;;;;5043557;28;1101;-75
2023/01/12 10:22:46;;;;;;;;;;;9.20;99.90;;;;;;5042353;28;1018;-74
2023/01/12 10:25:20;;;;;;;;;;;9.30;99.90;;;;;;5042608;28;1362;-74
2023/01/12 10:27:49;;;;;;;;;;;9.30;99.90;;;;;;5051972;28;2140;-76
2023/01/12 10:30:19;;;;;;;;;;;9.30;99.90;;;;;;5059583;28;1543;-73
2023/01/12 10:32:47;;;;;;;;;;;9.30;99.90;;;;;;5063642;28;1891;-74
2023/01/12 10:35:15;;;;;;;;;;;9.40;99.90;;;;;;5063148;28;1301;-75
2023/01/12 10:37:44;;;;;;;;;;;9.30;99.90;;;;;;5067089;28;1014;-75
2023/01/12 10:40:20;;;;;;;;;;;9.30;99.90;;;;;;5061902;28;1084;-73
2023/01/12 10:46:01;;;;;;;;;;;9.50;99.90;;;;;;5063793;28;1370;-74
2023/01/12 10:48:29;;;;;;;;;;;9.50;99.90;;;;;;5054842;28;1115;-74
2023/01/12 10:50:58;;;;;;;;;;;9.50;99.90;;;;;;5042800;28;1092;-74
2023/01/12 10:53:29;;;;;;;;;;;9.60;99.90;;;;;;5042282;28;1989;-75
2023/01/12 10:55:58;;;;;;;;;;;9.70;99.90;;;;;;5041612;28;1492;-74
2023/01/12 10:58:30;;;;;;;;;;;9.70;99.90;;;;;;5041117;28;1061;-74
2023/01/12 11:00:58;;;;;;;;;;;9.80;99.90;;;;;;5042005;28;2071;-74
2023/01/12 11:03:31;;;;;;;;;;;9.80;99.90;;;;;;5048783;28;1520;-75
2023/01/12 11:06:13;;;;;;;;;;;9.80;99.90;;;;;;5044931;28;1507;-78
2023/01/12 11:08:41;;;;;;;;;;;9.80;99.90;;;;;;5050880;28;1005;-78
2023/01/12 11:11:16;;;;;;;;;;;9.70;99.90;;;;;;5048279;28;1014;-76
2023/01/12 11:13:45;;;;;;;;;;;9.80;99.90;;;;;;5044044;28;1997;-75
2023/01/12 11:16:17;;;;;;;;;;;9.80;99.90;;;;;;5047879;28;1052;-75
2023/01/12 11:18:46;;;;;;;;;;;9.90;99.90;;;;;;5047989;28;857;-75
2023/01/12 11:21:15;;;;;;;;;;;9.80;99.90;;;;;;5047741;28;1061;-74
2023/01/12 11:23:49;;;;;;;;;;;9.90;99.90;;;;;;5046052;28;1383;-75
2023/01/12 11:26:20;;;;;;;;;;;9.90;99.90;;;;;;5040999;28;1180;-74
2023/01/12 11:28:52;;;;;;;;;;;9.80;99.90;;;;;;5045963;28;1033;-75
2023/01/12 11:31:22;;;;;;;;;;;9.90;99.90;;;;;;5042783;28;1034;-75
2023/01/12 11:33:52;;;;;;;;;;;9.90;99.90;;;;;;5041983;28;1989;-76
2023/01/12 11:36:23;;;;;;;;;;;9.90;99.90;;;;;;5042973;28;1195;-76
2023/01/12 11:38:52;;;;;;;;;;;10.00;99.90;;;;;;5042578;28;1940;-75
2023/01/12 11:41:22;;;;;;;;;;;10.00;99.90;;;;;;5044471;28;1744;-75
2023/01/12 11:43:54;;;;;;;;;;;10.00;99.90;;;;;;5046085;28;1379;-74
2023/01/12 11:46:25;;;;;;;;;;;10.00;99.90;;;;;;5045338;28;1048;-75
2023/01/12 11:49:01;;;;;;;;;;;10.00;99.90;;;;;;5043484;28;1346;-77
2023/01/12 11:51:29;;;;;;;;;;;10.00;99.90;;;;;;5042838;28;1080;-76
2023/01/12 11:53:57;;;;;;;;;;;10.10;99.90;;;;;;5042290;28;1906;-76
2023/01/12 11:56:35;;;;;;;;;;;10.00;99.90;;;;;;5044125;28;1046;-76
2023/01/12 11:59:07;;;;;;;;;;;10.10;99.90;;;;;;5043411;28;1917;-75
2023/01/12 12:01:36;;;;;;;;;;;10.00;99.90;;;;;;5042706;28;1092;-75
2023/01/12 12:04:06;;;;;;;;;;;10.00;99.90;;;;;;5044908;28;1277;-76
2023/01/12 12:06:41;;;;;;;;;;;10.20;99.90;;;;;;5043064;28;1005;-75
2023/01/12 12:09:16;;;;;;;;;;;10.20;99.90;;;;;;5043690;28;1010;-74
2023/01/12 12:11:48;;;;;;;;;;;10.10;99.90;;;;;;5045260;28;1030;-74
2023/01/12 12:14:22;;;;;;;;;;;10.20;99.90;;;;;;5048957;28;1921;-75
2023/01/12 12:16:53;;;;;;;;;;;10.20;99.90;;;;;;5042448;28;1532;-75
2023/01/12 12:19:26;;;;;;;;;;;10.20;99.90;;;;;;5047486;28;1011;-75
2023/01/12 12:21:58;;;;;;;;;;;10.20;99.90;;;;;;5045423;28;1383;-76
2023/01/12 12:24:47;;;;;;;;;;;10.20;99.90;;;;;;5043855;28;1380;-75
2023/01/12 12:27:21;;;;;;;;;;;10.20;99.90;;;;;;5046035;28;1274;-75
2023/01/12 12:29:58;;;;;;;;;;;10.20;99.90;;;;;;5044004;28;2080;-75
2023/01/12 12:32:30;;;;;;;;;;;10.20;99.90;;;;;;5042039;28;1478;-74
2023/01/12 12:35:03;;;;;;;;;;;10.20;99.90;;;;;;5044996;28;2142;-75
2023/01/12 12:37:39;;;;;;;;;;;10.20;99.90;;;;;;5044950;28;1961;-75
2023/01/12 12:40:12;;;;;;;;;;;10.30;99.90;;;;;;5046020;28;1006;-75
2023/01/12 12:45:38;;;;;;;;;;;10.30;99.90;;;;;;5045076;28;2012;-75
2023/01/12 12:48:08;;;;;;;;;;;10.40;99.90;;;;;;5042180;28;1037;-76
2023/01/12 12:50:38;;;;;;;;;;;10.40;99.90;;;;;;5042906;28;1057;-75
2023/01/12 12:53:19;;;;;;;;;;;10.40;99.90;;;;;;5041086;28;1218;-76
2023/01/12 12:55:48;;;;;;;;;;;10.40;99.90;;;;;;5045590;28;1570;-76
2023/01/12 12:58:27;;;;;;;;;;;10.40;99.90;;;;;;5042915;28;1124;-76
2023/01/12 13:01:16;;;;;;;;;;;10.30;99.90;;;;;;5042378;28;1686;-75
2023/01/12 13:03:47;;;;;;;;;;;10.50;99.90;;;;;;5043106;28;1428;-77
2023/01/12 13:06:19;;;;;;;;;;;10.60;99.90;;;;;;5051237;28;1073;-77
2023/01/12 13:08:48;;;;;;;;;;;10.80;99.90;;;;;;5044675;28;1148;-77
2023/01/12 13:11:16;;;;;;;;;;;10.70;99.90;;;;;;5044464;28;1072;-77
2023/01/12 13:13:57;;;;;;;;;;;10.90;99.90;;;;;;5045446;28;1979;-76
2023/01/12 13:16:42;;;;;;;;;;;10.90;99.90;;;;;;5044598;28;1061;-76
2023/01/12 13:19:14;;;;;;;;;;;11.00;99.90;;;;;;5040298;28;1550;-76
2023/01/12 13:22:00;;;;;;;;;;;11.10;99.90;;;;;;5043843;28;1298;-75
2023/01/12 13:24:39;;;;;;;;;;;11.00;99.90;;;;;;5043916;28;1441;-77
2023/01/12 13:27:26;;;;;;;;;;;11.00;99.90;;;;;;5045488;28;1267;-77
2023/01/12 13:30:13;;;;;;;;;;;11.00;99.90;;;;;;5045120;28;1006;-77
2023/01/12 13:32:42;;;;;;;;;;;11.10;99.90;;;;;;5044016;28;1248;-76
2023/01/12 13:35:29;;;;;;;;;;;11.10;99.90;;;;;;5041848;28;1914;-77
2023/01/12 13:38:03;;;;;;;;;;;11.30;99.90;;;;;;5044225;28;973;-77
2023/01/12 13:40:32;;;;;;;;;;;11.50;99.90;;;;;;5038095;28;1048;-76
2023/01/12 13:43:15;;;;;;;;;;;11.30;99.90;;;;;;5045274;28;1025;-76
2023/01/12 13:45:46;;;;;;;;;;;11.20;99.90;;;;;;5043110;28;1737;-77
2023/01/12 13:48:14;;;;;;;;;;;11.20;99.90;;;;;;5042831;28;1009;-77
2023/01/12 13:50:46;;;;;;;;;;;11.30;99.90;;;;;;5044423;28;1057;-76
2023/01/12 13:53:20;;;;;;;;;;;11.40;99.90;;;;;;5041924;28;1691;-78
2023/01/12 13:55:55;;;;;;;;;;;11.30;99.90;;;;;;5042653;28;1902;-77
2023/01/12 13:58:23;;;;;;;;;;;11.10;99.90;;;;;;5038225;28;1708;-78
2023/01/12 14:00:54;;;;;;;;;;;11.30;99.90;;;;;;5041586;28;1164;-76
2023/01/12 14:03:28;;;;;;;;;;;11.30;99.90;;;;;;5046148;28;1123;-76
2023/01/12 14:06:00;;;;;;;;;;;11.40;99.90;;;;;;5046075;28;1486;-77
2023/01/12 14:08:48;;;;;;;;;;;11.20;99.90;;;;;;5043205;28;1309;-77
2023/01/12 14:11:28;;;;;;;;;;;11.20;99.90;;;;;;5050828;28;994;-80
2023/01/12 14:17:47;;;;;;;;;;;11.20;99.90;;;;;;5046828;28;1981;-77
2023/01/12 14:19:51;;;;;;;;;;;11.20;99.90;;;;;;5019821;28;1782;-78
2023/01/12 14:22:19;;;;;;;;;;;11.30;99.90;;;;;;5045933;28;1834;-78
2023/01/12 14:24:48;;;;;;;;;;;11.40;99.90;;;;;;5043469;28;1228;-77
2023/01/12 14:27:20;;;;;;;;;;;11.40;99.90;;;;;;5043192;28;1105;-77
2023/01/12 14:29:48;;;;;;;;;;;11.40;99.90;;;;;;5042349;28;1033;-77
2023/01/12 14:32:18;;;;;;;;;;;11.30;99.90;;;;;;5045442;28;1070;-77
2023/01/12 14:34:48;;;;;;;;;;;11.20;99.90;;;;;;5044188;28;2018;-77
2023/01/12 14:37:24;;;;;;;;;;;11.20;99.90;;;;;;5047079;28;1001;-76
2023/01/12 14:39:54;;;;;;;;;;;11.20;99.90;;;;;;5045157;28;1223;-76
2023/01/12 14:48:28;;;;;;;;;;;11.10;99.90;;;;;;5048843;28;961;-76
2023/01/12 14:51:11;;;;;;;;;;;11.20;99.90;;;;;;5041637;28;1042;-77
2023/01/12 14:53:41;;;;;;;;;;;11.10;99.90;;;;;;5048010;28;1041;-76
2023/01/12 14:56:14;;;;;;;;;;;11.10;99.90;;;;;;5050261;28;1980;-76
2023/01/12 14:58:42;;;;;;;;;;;11.00;99.90;;;;;;5051210;28;1011;-76
2023/01/12 15:01:10;;;;;;;;;;;11.20;99.90;;;;;;5046424;28;1342;-77
2023/01/12 15:03:38;;;;;;;;;;;11.00;99.90;;;;;;5047643;28;1096;-76
2023/01/12 15:06:13;;;;;;;;;;;11.00;99.90;;;;;;5049271;28;1052;-76
2023/01/12 15:08:52;;;;;;;;;;;10.90;99.90;;;;;;5049297;28;989;-78
2023/01/12 15:11:29;;;;;;;;;;;11.10;99.90;;;;;;5046424;28;1539;-78
2023/01/12 15:13:57;;;;;;;;;;;11.00;99.90;;;;;;5048036;28;1359;-77
2023/01/12 15:27:28;;;;;;;;;;;10.80;99.90;;;;;;5045459;28;1058;-77
2023/01/12 15:29:56;;;;;;;;;;;10.70;99.90;;;;;;5049071;28;1188;-78
2023/01/12 15:32:30;;;;;;;;;;;10.60;99.90;;;;;;5047044;28;1291;-77
2023/01/12 15:35:14;;;;;;;;;;;10.60;99.90;;;;;;5046561;28;1906;-76
2023/01/12 15:37:42;;;;;;;;;;;10.70;99.90;;;;;;5041346;28;1025;-76
2023/01/12 15:40:12;;;;;;;;;;;10.60;99.90;;;;;;5050088;28;1101;-76
2023/01/12 15:42:41;;;;;;;;;;;10.60;99.90;;;;;;5047242;28;1345;-76
2023/01/12 15:45:26;;;;;;;;;;;10.80;99.90;;;;;;5045353;28;1379;-76
2023/01/12 15:47:54;;;;;;;;;;;10.70;99.90;;;;;;5042443;28;1021;-76
2023/01/12 15:50:22;;;;;;;;;;;10.70;99.90;;;;;;5048170;28;1104;-77
2023/01/12 15:52:50;;;;;;;;;;;10.70;99.90;;;;;;5046811;28;1387;-75
2023/01/12 15:55:19;;;;;;;;;;;10.70;99.90;;;;;;5046783;28;1997;-75